sensor_id;sensor_type;location;lat;lon;timestamp;P1;durP1;ratioP1;P2;durP2;ratioP2
12908;SDS011;6522;49.622;6.126;2022-11-14T00:01:06;13.07;;;11.77;;
12908;SDS011;6522;49.622;6.126;2022-11-14T00:03:52;13.05;;;11.68;;
12908;SDS011;6522;49.622;6.126;2022-11-14T00:06:39;17.30;;;13.70;;
12908;SDS011;6522;49.622;6.126;2022-11-14T00:09:25;14.77;;;13.27;;
12908;SDS011;6522;49.622;6.126;2022-11-14T00:12:12;17.80;;;16.02;;
12908;SDS011;6522;49.622;6.126;2022-11-14T00:14:59;22.27;;;19.12;;
12908;SDS011;6522;49.622;6.126;2022-11-14T00:17:46;22.42;;;18.85;;
12908;SDS011;6522;49.622;6.126;2022-11-14T00:20:32;25.48;;;20.02;;
12908;SDS011;6522;49.622;6.126;2022-11-14T00:23:19;28.75;;;23.20;;
12908;SDS011;6522;49.622;6.126;2022-11-14T00:26:06;32.60;;;23.70;;
12908;SDS011;6522;49.622;6.126;2022-11-14T00:28:53;54.83;;;24.90;;
12908;SDS011;6522;49.622;6.126;2022-11-14T00:31:39;50.35;;;26.65;;
12908;SDS011;6522;49.622;6.126;2022-11-14T00:34:26;77.55;;;28.50;;
12908;SDS011;6522;49.622;6.126;2022-11-14T00:37:12;85.43;;;31.48;;
12908;SDS011;6522;49.622;6.126;2022-11-14T00:39:59;83.55;;;29.08;;
12908;SDS011;6522;49.622;6.126;2022-11-14T00:42:45;82.78;;;28.92;;
12908;SDS011;6522;49.622;6.126;2022-11-14T00:45:33;150.20;;;35.85;;
12908;SDS011;6522;49.622;6.126;2022-11-14T00:48:19;147.45;;;37.58;;
12908;SDS011;6522;49.622;6.126;2022-11-14T00:51:06;106.00;;;28.60;;
12908;SDS011;6522;49.622;6.126;2022-11-14T00:53:53;215.75;;;42.60;;
12908;SDS011;6522;49.622;6.126;2022-11-14T00:56:40;211.65;;;37.47;;
12908;SDS011;6522;49.622;6.126;2022-11-14T00:59:27;201.15;;;38.85;;
12908;SDS011;6522;49.622;6.126;2022-11-14T01:02:13;252.45;;;49.05;;
12908;SDS011;6522;49.622;6.126;2022-11-14T01:05:00;223.77;;;42.90;;
12908;SDS011;6522;49.622;6.126;2022-11-14T01:07:47;218.88;;;40.12;;
12908;SDS011;6522;49.622;6.126;2022-11-14T01:10:33;187.27;;;34.90;;
12908;SDS011;6522;49.622;6.126;2022-11-14T01:13:20;158.15;;;36.92;;
12908;SDS011;6522;49.622;6.126;2022-11-14T01:16:06;163.90;;;37.40;;
12908;SDS011;6522;49.622;6.126;2022-11-14T01:18:53;143.00;;;37.53;;
12908;SDS011;6522;49.622;6.126;2022-11-14T01:21:40;125.15;;;35.75;;
12908;SDS011;6522;49.622;6.126;2022-11-14T01:24:27;111.80;;;35.35;;
12908;SDS011;6522;49.622;6.126;2022-11-14T01:27:14;121.97;;;35.00;;
12908;SDS011;6522;49.622;6.126;2022-11-14T01:30:01;90.57;;;27.37;;
12908;SDS011;6522;49.622;6.126;2022-11-14T01:32:47;150.98;;;35.00;;
12908;SDS011;6522;49.622;6.126;2022-11-14T01:35:35;162.93;;;30.25;;
12908;SDS011;6522;49.622;6.126;2022-11-14T01:38:21;205.82;;;41.55;;
12908;SDS011;6522;49.622;6.126;2022-11-14T01:41:10;119.05;;;31.77;;
12908;SDS011;6522;49.622;6.126;2022-11-14T01:43:55;226.00;;;37.33;;
12908;SDS011;6522;49.622;6.126;2022-11-14T01:46:44;214.65;;;41.47;;
12908;SDS011;6522;49.622;6.126;2022-11-14T01:49:31;151.00;;;39.47;;
12908;SDS011;6522;49.622;6.126;2022-11-14T01:55:11;128.38;;;29.37;;
12908;SDS011;6522;49.622;6.126;2022-11-14T01:57:58;153.67;;;31.30;;
12908;SDS011;6522;49.622;6.126;2022-11-14T02:00:44;163.50;;;33.63;;
12908;SDS011;6522;49.622;6.126;2022-11-14T02:03:31;118.75;;;29.45;;
12908;SDS011;6522;49.622;6.126;2022-11-14T02:06:19;125.62;;;28.02;;
12908;SDS011;6522;49.622;6.126;2022-11-14T02:09:05;96.50;;;31.10;;
12908;SDS011;6522;49.622;6.126;2022-11-14T02:11:52;152.87;;;39.72;;
12908;SDS011;6522;49.622;6.126;2022-11-14T02:14:38;113.45;;;33.85;;
12908;SDS011;6522;49.622;6.126;2022-11-14T02:17:25;180.23;;;42.10;;
12908;SDS011;6522;49.622;6.126;2022-11-14T02:22:58;159.85;;;38.92;;
12908;SDS011;6522;49.622;6.126;2022-11-14T02:25:45;102.40;;;29.08;;
12908;SDS011;6522;49.622;6.126;2022-11-14T02:28:32;127.45;;;27.45;;
12908;SDS011;6522;49.622;6.126;2022-11-14T02:31:18;172.82;;;33.17;;
12908;SDS011;6522;49.622;6.126;2022-11-14T02:34:05;119.43;;;34.60;;
12908;SDS011;6522;49.622;6.126;2022-11-14T02:36:52;109.75;;;34.38;;
12908;SDS011;6522;49.622;6.126;2022-11-14T02:39:39;125.57;;;36.42;;
12908;SDS011;6522;49.622;6.126;2022-11-14T02:42:26;186.95;;;38.65;;
12908;SDS011;6522;49.622;6.126;2022-11-14T02:45:13;96.05;;;31.87;;
12908;SDS011;6522;49.622;6.126;2022-11-14T02:47:59;189.73;;;43.22;;
12908;SDS011;6522;49.622;6.126;2022-11-14T02:50:49;139.23;;;36.38;;
12908;SDS011;6522;49.622;6.126;2022-11-14T02:53:35;173.20;;;41.75;;
12908;SDS011;6522;49.622;6.126;2022-11-14T02:56:22;85.57;;;32.58;;
12908;SDS011;6522;49.622;6.126;2022-11-14T02:59:09;105.22;;;29.70;;
12908;SDS011;6522;49.622;6.126;2022-11-14T03:01:56;100.53;;;28.58;;
12908;SDS011;6522;49.622;6.126;2022-11-14T03:04:42;94.25;;;29.15;;
12908;SDS011;6522;49.622;6.126;2022-11-14T03:07:29;117.50;;;32.55;;
12908;SDS011;6522;49.622;6.126;2022-11-14T03:10:16;117.85;;;34.65;;
12908;SDS011;6522;49.622;6.126;2022-11-14T03:13:03;173.60;;;42.60;;
12908;SDS011;6522;49.622;6.126;2022-11-14T03:15:50;170.40;;;41.22;;
12908;SDS011;6522;49.622;6.126;2022-11-14T03:18:36;197.73;;;44.08;;
12908;SDS011;6522;49.622;6.126;2022-11-14T03:21:23;283.55;;;49.20;;
12908;SDS011;6522;49.622;6.126;2022-11-14T03:24:09;140.55;;;37.10;;
12908;SDS011;6522;49.622;6.126;2022-11-14T03:26:56;186.98;;;39.42;;
12908;SDS011;6522;49.622;6.126;2022-11-14T03:29:43;129.43;;;36.75;;
12908;SDS011;6522;49.622;6.126;2022-11-14T03:32:30;123.13;;;31.42;;
12908;SDS011;6522;49.622;6.126;2022-11-14T03:35:16;154.23;;;30.35;;
12908;SDS011;6522;49.622;6.126;2022-11-14T03:38:03;140.37;;;37.33;;
12908;SDS011;6522;49.622;6.126;2022-11-14T03:40:50;224.60;;;44.90;;
12908;SDS011;6522;49.622;6.126;2022-11-14T03:43:37;192.65;;;42.20;;
12908;SDS011;6522;49.622;6.126;2022-11-14T03:46:23;202.00;;;40.53;;
12908;SDS011;6522;49.622;6.126;2022-11-14T03:49:10;242.35;;;44.53;;
12908;SDS011;6522;49.622;6.126;2022-11-14T03:51:57;223.80;;;39.75;;
12908;SDS011;6522;49.622;6.126;2022-11-14T03:54:43;288.30;;;49.05;;
12908;SDS011;6522;49.622;6.126;2022-11-14T03:57:30;218.73;;;41.10;;
12908;SDS011;6522;49.622;6.126;2022-11-14T04:00:17;147.27;;;33.83;;
12908;SDS011;6522;49.622;6.126;2022-11-14T04:03:04;134.65;;;32.97;;
12908;SDS011;6522;49.622;6.126;2022-11-14T04:05:50;183.93;;;39.67;;
12908;SDS011;6522;49.622;6.126;2022-11-14T04:08:38;331.02;;;52.80;;
12908;SDS011;6522;49.622;6.126;2022-11-14T04:11:24;344.60;;;52.72;;
12908;SDS011;6522;49.622;6.126;2022-11-14T04:14:10;195.02;;;36.45;;
12908;SDS011;6522;49.622;6.126;2022-11-14T04:16:57;140.88;;;31.83;;
12908;SDS011;6522;49.622;6.126;2022-11-14T04:19:44;99.37;;;29.73;;
12908;SDS011;6522;49.622;6.126;2022-11-14T04:22:31;96.93;;;31.30;;
12908;SDS011;6522;49.622;6.126;2022-11-14T04:25:18;92.75;;;29.75;;
12908;SDS011;6522;49.622;6.126;2022-11-14T04:28:04;87.15;;;32.50;;
12908;SDS011;6522;49.622;6.126;2022-11-14T04:30:51;138.55;;;35.58;;
12908;SDS011;6522;49.622;6.126;2022-11-14T04:33:38;149.95;;;34.67;;
12908;SDS011;6522;49.622;6.126;2022-11-14T04:36:24;154.00;;;37.75;;
12908;SDS011;6522;49.622;6.126;2022-11-14T04:39:11;118.30;;;29.95;;
12908;SDS011;6522;49.622;6.126;2022-11-14T04:41:58;113.03;;;29.33;;
12908;SDS011;6522;49.622;6.126;2022-11-14T04:44:45;131.85;;;32.05;;
12908;SDS011;6522;49.622;6.126;2022-11-14T04:47:32;137.25;;;36.38;;
12908;SDS011;6522;49.622;6.126;2022-11-14T04:50:19;144.00;;;34.55;;
12908;SDS011;6522;49.622;6.126;2022-11-14T04:53:05;141.45;;;35.90;;
12908;SDS011;6522;49.622;6.126;2022-11-14T04:55:52;156.50;;;37.47;;
12908;SDS011;6522;49.622;6.126;2022-11-14T04:58:39;132.32;;;31.25;;
12908;SDS011;6522;49.622;6.126;2022-11-14T05:01:26;135.65;;;35.97;;
12908;SDS011;6522;49.622;6.126;2022-11-14T05:04:12;186.15;;;37.53;;
12908;SDS011;6522;49.622;6.126;2022-11-14T05:06:59;81.10;;;29.92;;
12908;SDS011;6522;49.622;6.126;2022-11-14T05:09:46;386.95;;;63.63;;
12908;SDS011;6522;49.622;6.126;2022-11-14T05:12:33;222.30;;;41.83;;
12908;SDS011;6522;49.622;6.126;2022-11-14T05:15:19;135.48;;;34.95;;
12908;SDS011;6522;49.622;6.126;2022-11-14T05:18:06;84.90;;;33.50;;
12908;SDS011;6522;49.622;6.126;2022-11-14T05:20:56;57.08;;;27.42;;
12908;SDS011;6522;49.622;6.126;2022-11-14T05:23:40;52.03;;;25.73;;
12908;SDS011;6522;49.622;6.126;2022-11-14T05:26:27;51.13;;;24.08;;
12908;SDS011;6522;49.622;6.126;2022-11-14T05:29:13;58.65;;;26.27;;
12908;SDS011;6522;49.622;6.126;2022-11-14T05:32:00;58.75;;;28.00;;
12908;SDS011;6522;49.622;6.126;2022-11-14T05:34:47;58.10;;;28.38;;
12908;SDS011;6522;49.622;6.126;2022-11-14T05:37:34;51.45;;;23.15;;
12908;SDS011;6522;49.622;6.126;2022-11-14T05:40:21;51.78;;;21.70;;
12908;SDS011;6522;49.622;6.126;2022-11-14T05:43:08;57.58;;;22.77;;
12908;SDS011;6522;49.622;6.126;2022-11-14T05:46:01;55.42;;;26.35;;
12908;SDS011;6522;49.622;6.126;2022-11-14T05:48:47;61.25;;;27.33;;
12908;SDS011;6522;49.622;6.126;2022-11-14T05:51:34;68.12;;;28.70;;
12908;SDS011;6522;49.622;6.126;2022-11-14T05:54:21;49.67;;;26.02;;
12908;SDS011;6522;49.622;6.126;2022-11-14T05:57:07;55.00;;;25.50;;
12908;SDS011;6522;49.622;6.126;2022-11-14T05:59:54;52.50;;;23.95;;
12908;SDS011;6522;49.622;6.126;2022-11-14T06:02:41;56.58;;;21.33;;
12908;SDS011;6522;49.622;6.126;2022-11-14T06:05:28;46.70;;;23.85;;
12908;SDS011;6522;49.622;6.126;2022-11-14T06:08:14;42.88;;;19.37;;
12908;SDS011;6522;49.622;6.126;2022-11-14T06:11:02;35.72;;;17.77;;
12908;SDS011;6522;49.622;6.126;2022-11-14T06:13:48;34.75;;;18.70;;
12908;SDS011;6522;49.622;6.126;2022-11-14T06:16:35;44.42;;;20.12;;
12908;SDS011;6522;49.622;6.126;2022-11-14T06:19:21;43.25;;;20.20;;
12908;SDS011;6522;49.622;6.126;2022-11-14T06:22:09;45.60;;;20.95;;
12908;SDS011;6522;49.622;6.126;2022-11-14T06:24:55;44.03;;;20.35;;
12908;SDS011;6522;49.622;6.126;2022-11-14T06:27:42;45.65;;;21.70;;
12908;SDS011;6522;49.622;6.126;2022-11-14T06:30:29;42.40;;;20.95;;
12908;SDS011;6522;49.622;6.126;2022-11-14T06:33:16;43.83;;;18.87;;
12908;SDS011;6522;49.622;6.126;2022-11-14T06:36:03;42.60;;;21.58;;
12908;SDS011;6522;49.622;6.126;2022-11-14T06:38:50;49.85;;;22.58;;
12908;SDS011;6522;49.622;6.126;2022-11-14T06:41:36;34.03;;;18.95;;
12908;SDS011;6522;49.622;6.126;2022-11-14T06:44:23;35.63;;;19.48;;
12908;SDS011;6522;49.622;6.126;2022-11-14T06:47:09;38.20;;;19.20;;
12908;SDS011;6522;49.622;6.126;2022-11-14T06:49:56;39.60;;;19.52;;
12908;SDS011;6522;49.622;6.126;2022-11-14T06:52:42;45.10;;;21.20;;
12908;SDS011;6522;49.622;6.126;2022-11-14T06:55:29;38.45;;;18.30;;
12908;SDS011;6522;49.622;6.126;2022-11-14T06:58:16;32.78;;;18.80;;
12908;SDS011;6522;49.622;6.126;2022-11-14T07:03:56;38.92;;;17.95;;
12908;SDS011;6522;49.622;6.126;2022-11-14T07:06:42;31.37;;;17.98;;
12908;SDS011;6522;49.622;6.126;2022-11-14T07:09:29;39.53;;;18.45;;
12908;SDS011;6522;49.622;6.126;2022-11-14T07:12:16;30.15;;;17.23;;
12908;SDS011;6522;49.622;6.126;2022-11-14T07:15:03;37.47;;;16.62;;
12908;SDS011;6522;49.622;6.126;2022-11-14T07:17:50;35.42;;;18.98;;
12908;SDS011;6522;49.622;6.126;2022-11-14T07:20:37;34.05;;;18.50;;
12908;SDS011;6522;49.622;6.126;2022-11-14T07:23:23;30.62;;;16.95;;
12908;SDS011;6522;49.622;6.126;2022-11-14T07:26:11;31.90;;;17.33;;
12908;SDS011;6522;49.622;6.126;2022-11-14T07:28:58;35.55;;;20.08;;
12908;SDS011;6522;49.622;6.126;2022-11-14T07:31:44;31.42;;;18.10;;
12908;SDS011;6522;49.622;6.126;2022-11-14T07:34:31;31.90;;;16.98;;
12908;SDS011;6522;49.622;6.126;2022-11-14T07:37:18;39.65;;;18.17;;
12908;SDS011;6522;49.622;6.126;2022-11-14T07:40:05;35.17;;;17.83;;
12908;SDS011;6522;49.622;6.126;2022-11-14T07:42:56;36.43;;;16.70;;
12908;SDS011;6522;49.622;6.126;2022-11-14T07:45:39;33.38;;;17.02;;
12908;SDS011;6522;49.622;6.126;2022-11-14T07:48:26;31.30;;;14.60;;
12908;SDS011;6522;49.622;6.126;2022-11-14T07:51:13;30.00;;;14.77;;
12908;SDS011;6522;49.622;6.126;2022-11-14T07:53:59;20.60;;;13.02;;
12908;SDS011;6522;49.622;6.126;2022-11-14T07:56:46;29.30;;;15.25;;
12908;SDS011;6522;49.622;6.126;2022-11-14T07:59:32;27.98;;;16.08;;
12908;SDS011;6522;49.622;6.126;2022-11-14T08:02:19;25.88;;;16.35;;
12908;SDS011;6522;49.622;6.126;2022-11-14T08:05:06;26.75;;;17.55;;
12908;SDS011;6522;49.622;6.126;2022-11-14T08:07:53;27.65;;;15.98;;
12908;SDS011;6522;49.622;6.126;2022-11-14T08:10:40;32.15;;;19.05;;
12908;SDS011;6522;49.622;6.126;2022-11-14T08:13:27;34.17;;;19.23;;
12908;SDS011;6522;49.622;6.126;2022-11-14T08:16:14;28.87;;;18.73;;
12908;SDS011;6522;49.622;6.126;2022-11-14T08:19:01;27.67;;;17.92;;
12908;SDS011;6522;49.622;6.126;2022-11-14T08:21:47;25.15;;;15.85;;
12908;SDS011;6522;49.622;6.126;2022-11-14T08:24:34;25.80;;;17.98;;
12908;SDS011;6522;49.622;6.126;2022-11-14T08:27:21;30.98;;;18.40;;
12908;SDS011;6522;49.622;6.126;2022-11-14T08:30:08;27.37;;;16.50;;
12908;SDS011;6522;49.622;6.126;2022-11-14T08:32:55;26.23;;;15.80;;
12908;SDS011;6522;49.622;6.126;2022-11-14T08:35:42;22.25;;;14.60;;
12908;SDS011;6522;49.622;6.126;2022-11-14T08:38:33;33.00;;;16.27;;
12908;SDS011;6522;49.622;6.126;2022-11-14T08:41:19;26.92;;;16.02;;
12908;SDS011;6522;49.622;6.126;2022-11-14T08:44:06;27.33;;;16.00;;
12908;SDS011;6522;49.622;6.126;2022-11-14T08:46:53;26.67;;;17.05;;
12908;SDS011;6522;49.622;6.126;2022-11-14T08:49:39;29.63;;;16.27;;
12908;SDS011;6522;49.622;6.126;2022-11-14T08:52:26;26.02;;;15.50;;
12908;SDS011;6522;49.622;6.126;2022-11-14T08:55:13;28.05;;;16.73;;
12908;SDS011;6522;49.622;6.126;2022-11-14T08:58:00;27.20;;;15.77;;
12908;SDS011;6522;49.622;6.126;2022-11-14T09:00:47;25.05;;;15.40;;
12908;SDS011;6522;49.622;6.126;2022-11-14T09:03:34;20.12;;;12.68;;
12908;SDS011;6522;49.622;6.126;2022-11-14T09:06:21;26.55;;;14.05;;
12908;SDS011;6522;49.622;6.126;2022-11-14T09:09:07;25.70;;;14.25;;
12908;SDS011;6522;49.622;6.126;2022-11-14T09:11:54;20.65;;;12.50;;
12908;SDS011;6522;49.622;6.126;2022-11-14T09:14:40;21.52;;;13.45;;
12908;SDS011;6522;49.622;6.126;2022-11-14T09:17:27;23.70;;;13.57;;
12908;SDS011;6522;49.622;6.126;2022-11-14T09:20:14;19.42;;;13.07;;
12908;SDS011;6522;49.622;6.126;2022-11-14T09:23:01;23.05;;;13.23;;
12908;SDS011;6522;49.622;6.126;2022-11-14T09:25:48;22.48;;;14.60;;
12908;SDS011;6522;49.622;6.126;2022-11-14T09:28:35;21.23;;;13.70;;
12908;SDS011;6522;49.622;6.126;2022-11-14T09:31:21;20.15;;;13.13;;
12908;SDS011;6522;49.622;6.126;2022-11-14T09:34:08;23.83;;;12.77;;
12908;SDS011;6522;49.622;6.126;2022-11-14T09:36:55;19.45;;;12.30;;
12908;SDS011;6522;49.622;6.126;2022-11-14T09:39:42;19.60;;;12.55;;
12908;SDS011;6522;49.622;6.126;2022-11-14T09:42:34;20.67;;;12.00;;
12908;SDS011;6522;49.622;6.126;2022-11-14T09:45:16;22.25;;;13.15;;
12908;SDS011;6522;49.622;6.126;2022-11-14T09:48:09;25.55;;;13.93;;
12908;SDS011;6522;49.622;6.126;2022-11-14T09:51:03;19.60;;;12.60;;
12908;SDS011;6522;49.622;6.126;2022-11-14T09:53:46;20.85;;;13.95;;
12908;SDS011;6522;49.622;6.126;2022-11-14T09:56:32;20.10;;;13.10;;
12908;SDS011;6522;49.622;6.126;2022-11-14T09:59:19;22.40;;;14.52;;
12908;SDS011;6522;49.622;6.126;2022-11-14T10:02:19;25.35;;;13.27;;
12908;SDS011;6522;49.622;6.126;2022-11-14T10:05:07;17.50;;;12.80;;
12908;SDS011;6522;49.622;6.126;2022-11-14T10:14:25;21.37;;;13.48;;
12908;SDS011;6522;49.622;6.126;2022-11-14T10:17:12;22.27;;;14.68;;
12908;SDS011;6522;49.622;6.126;2022-11-14T10:19:59;22.58;;;13.70;;
12908;SDS011;6522;49.622;6.126;2022-11-14T10:26:13;22.55;;;12.93;;
12908;SDS011;6522;49.622;6.126;2022-11-14T10:29:01;24.75;;;16.33;;
12908;SDS011;6522;49.622;6.126;2022-11-14T10:34:48;24.00;;;13.07;;
12908;SDS011;6522;49.622;6.126;2022-11-14T10:37:40;17.12;;;11.85;;
12908;SDS011;6522;49.622;6.126;2022-11-14T10:40:23;22.33;;;14.38;;
12908;SDS011;6522;49.622;6.126;2022-11-14T10:43:16;18.90;;;13.50;;
12908;SDS011;6522;49.622;6.126;2022-11-14T10:46:09;19.98;;;12.85;;
12908;SDS011;6522;49.622;6.126;2022-11-14T10:48:46;18.75;;;11.93;;
12908;SDS011;6522;49.622;6.126;2022-11-14T10:51:39;23.60;;;13.52;;
12908;SDS011;6522;49.622;6.126;2022-11-14T10:54:36;23.35;;;13.05;;
12908;SDS011;6522;49.622;6.126;2022-11-14T10:57:21;19.37;;;12.32;;
12908;SDS011;6522;49.622;6.126;2022-11-14T11:00:14;19.55;;;11.73;;
12908;SDS011;6522;49.622;6.126;2022-11-14T11:03:01;18.50;;;12.90;;
12908;SDS011;6522;49.622;6.126;2022-11-14T11:05:50;21.92;;;12.02;;
12908;SDS011;6522;49.622;6.126;2022-11-14T11:08:39;16.45;;;11.43;;
12908;SDS011;6522;49.622;6.126;2022-11-14T11:11:40;17.65;;;11.55;;
12908;SDS011;6522;49.622;6.126;2022-11-14T11:14:27;17.17;;;10.80;;
12908;SDS011;6522;49.622;6.126;2022-11-14T11:17:14;15.00;;;10.65;;
12908;SDS011;6522;49.622;6.126;2022-11-14T11:23:12;16.10;;;10.57;;
12908;SDS011;6522;49.622;6.126;2022-11-14T11:26:02;13.85;;;10.35;;
12908;SDS011;6522;49.622;6.126;2022-11-14T11:29:00;17.92;;;11.82;;
12908;SDS011;6522;49.622;6.126;2022-11-14T11:31:49;18.23;;;11.40;;
12908;SDS011;6522;49.622;6.126;2022-11-14T11:34:31;17.10;;;12.35;;
12908;SDS011;6522;49.622;6.126;2022-11-14T11:37:19;17.02;;;11.73;;
12908;SDS011;6522;49.622;6.126;2022-11-14T11:40:05;17.30;;;12.50;;
12908;SDS011;6522;49.622;6.126;2022-11-14T11:43:02;15.07;;;10.70;;
12908;SDS011;6522;49.622;6.126;2022-11-14T11:45:48;20.30;;;12.60;;
12908;SDS011;6522;49.622;6.126;2022-11-14T11:48:38;19.02;;;12.45;;
12908;SDS011;6522;49.622;6.126;2022-11-14T11:51:25;22.35;;;12.88;;
12908;SDS011;6522;49.622;6.126;2022-11-14T11:57:02;18.58;;;10.73;;
12908;SDS011;6522;49.622;6.126;2022-11-14T11:59:48;18.00;;;11.32;;
12908;SDS011;6522;49.622;6.126;2022-11-14T12:02:35;14.98;;;11.38;;
12908;SDS011;6522;49.622;6.126;2022-11-14T12:05:31;20.90;;;11.88;;
12908;SDS011;6522;49.622;6.126;2022-11-14T12:08:20;20.80;;;11.95;;
12908;SDS011;6522;49.622;6.126;2022-11-14T12:11:04;18.37;;;10.93;;
12908;SDS011;6522;49.622;6.126;2022-11-14T12:20:07;18.12;;;12.48;;
12908;SDS011;6522;49.622;6.126;2022-11-14T12:22:59;19.75;;;12.10;;
12908;SDS011;6522;49.622;6.126;2022-11-14T12:25:46;18.30;;;11.43;;
12908;SDS011;6522;49.622;6.126;2022-11-14T12:28:34;18.25;;;12.32;;
12908;SDS011;6522;49.622;6.126;2022-11-14T12:31:16;18.25;;;12.13;;
12908;SDS011;6522;49.622;6.126;2022-11-14T12:34:10;22.42;;;12.15;;
12908;SDS011;6522;49.622;6.126;2022-11-14T12:36:50;18.02;;;11.95;;
12908;SDS011;6522;49.622;6.126;2022-11-14T12:39:37;18.77;;;12.52;;
12908;SDS011;6522;49.622;6.126;2022-11-14T12:42:24;22.40;;;14.52;;
12908;SDS011;6522;49.622;6.126;2022-11-14T12:46:12;19.30;;;12.55;;
12908;SDS011;6522;49.622;6.126;2022-11-14T12:57:23;26.20;;;14.65;;
12908;SDS011;6522;49.622;6.126;2022-11-14T13:00:06;23.65;;;14.80;;
12908;SDS011;6522;49.622;6.126;2022-11-14T13:06:00;20.73;;;13.95;;
12908;SDS011;6522;49.622;6.126;2022-11-14T13:11:34;17.83;;;13.43;;
12908;SDS011;6522;49.622;6.126;2022-11-14T13:14:19;21.33;;;13.57;;
12908;SDS011;6522;49.622;6.126;2022-11-14T13:17:25;19.67;;;12.90;;
12908;SDS011;6522;49.622;6.126;2022-11-14T13:20:33;20.80;;;13.62;;
12908;SDS011;6522;49.622;6.126;2022-11-14T13:26:38;20.10;;;14.07;;
12908;SDS011;6522;49.622;6.126;2022-11-14T13:35:46;17.87;;;11.98;;
12908;SDS011;6522;49.622;6.126;2022-11-14T13:38:49;19.17;;;11.82;;
12908;SDS011;6522;49.622;6.126;2022-11-14T13:47:18;19.12;;;13.20;;
12908;SDS011;6522;49.622;6.126;2022-11-14T13:50:03;18.05;;;12.18;;
12908;SDS011;6522;49.622;6.126;2022-11-14T13:52:48;20.52;;;13.25;;
12908;SDS011;6522;49.622;6.126;2022-11-14T14:01:37;20.70;;;11.80;;
12908;SDS011;6522;49.622;6.126;2022-11-14T14:07:16;21.27;;;12.65;;
12908;SDS011;6522;49.622;6.126;2022-11-14T14:13:08;19.92;;;13.10;;
12908;SDS011;6522;49.622;6.126;2022-11-14T14:19:00;20.62;;;12.65;;
12908;SDS011;6522;49.622;6.126;2022-11-14T14:21:44;18.42;;;12.40;;
12908;SDS011;6522;49.622;6.126;2022-11-14T14:24:34;19.60;;;12.77;;
12908;SDS011;6522;49.622;6.126;2022-11-14T14:27:20;20.15;;;12.15;;
12908;SDS011;6522;49.622;6.126;2022-11-14T14:30:07;20.33;;;12.45;;
12908;SDS011;6522;49.622;6.126;2022-11-14T14:35:55;22.70;;;12.73;;
12908;SDS011;6522;49.622;6.126;2022-11-14T14:38:42;19.80;;;11.57;;
12908;SDS011;6522;49.622;6.126;2022-11-14T14:41:29;21.05;;;13.20;;
12908;SDS011;6522;49.622;6.126;2022-11-14T14:50:15;20.08;;;12.52;;
12908;SDS011;6522;49.622;6.126;2022-11-14T14:53:01;19.20;;;12.45;;
12908;SDS011;6522;49.622;6.126;2022-11-14T14:55:55;18.85;;;12.25;;
12908;SDS011;6522;49.622;6.126;2022-11-14T14:58:37;17.73;;;12.65;;
12908;SDS011;6522;49.622;6.126;2022-11-14T15:01:31;23.38;;;13.13;;
12908;SDS011;6522;49.622;6.126;2022-11-14T15:04:14;21.50;;;13.80;;
12908;SDS011;6522;49.622;6.126;2022-11-14T15:07:01;23.77;;;13.75;;
12908;SDS011;6522;49.622;6.126;2022-11-14T15:09:57;20.40;;;13.60;;
12908;SDS011;6522;49.622;6.126;2022-11-14T15:12:43;20.97;;;12.43;;
12908;SDS011;6522;49.622;6.126;2022-11-14T15:15:30;23.20;;;12.60;;
12908;SDS011;6522;49.622;6.126;2022-11-14T15:18:25;19.40;;;13.30;;
12908;SDS011;6522;49.622;6.126;2022-11-14T15:21:44;21.00;;;13.18;;
12908;SDS011;6522;49.622;6.126;2022-11-14T15:24:13;17.50;;;12.37;;
12908;SDS011;6522;49.622;6.126;2022-11-14T15:27:02;19.87;;;12.15;;
12908;SDS011;6522;49.622;6.126;2022-11-14T15:29:52;17.10;;;12.57;;
12908;SDS011;6522;49.622;6.126;2022-11-14T15:32:38;23.85;;;13.43;;
12908;SDS011;6522;49.622;6.126;2022-11-14T15:35:27;20.60;;;13.30;;
12908;SDS011;6522;49.622;6.126;2022-11-14T15:44:04;19.50;;;13.48;;
12908;SDS011;6522;49.622;6.126;2022-11-14T15:46:51;22.55;;;14.23;;
12908;SDS011;6522;49.622;6.126;2022-11-14T15:49:38;17.83;;;14.27;;
12908;SDS011;6522;49.622;6.126;2022-11-14T15:52:32;22.00;;;14.15;;
12908;SDS011;6522;49.622;6.126;2022-11-14T15:55:19;28.65;;;13.85;;
12908;SDS011;6522;49.622;6.126;2022-11-14T15:58:08;26.10;;;14.13;;
12908;SDS011;6522;49.622;6.126;2022-11-14T16:00:55;21.17;;;14.10;;
12908;SDS011;6522;49.622;6.126;2022-11-14T16:03:45;24.30;;;14.93;;
12908;SDS011;6522;49.622;6.126;2022-11-14T16:06:34;23.23;;;12.85;;
12908;SDS011;6522;49.622;6.126;2022-11-14T16:09:21;22.05;;;13.70;;
12908;SDS011;6522;49.622;6.126;2022-11-14T16:12:07;19.87;;;13.75;;
12908;SDS011;6522;49.622;6.126;2022-11-14T16:14:54;19.02;;;14.10;;
12908;SDS011;6522;49.622;6.126;2022-11-14T16:17:41;25.30;;;15.63;;
12908;SDS011;6522;49.622;6.126;2022-11-14T16:20:28;22.75;;;15.10;;
12908;SDS011;6522;49.622;6.126;2022-11-14T16:23:14;23.23;;;14.98;;
12908;SDS011;6522;49.622;6.126;2022-11-14T16:26:00;21.70;;;15.07;;
12908;SDS011;6522;49.622;6.126;2022-11-14T16:28:47;19.92;;;13.98;;
12908;SDS011;6522;49.622;6.126;2022-11-14T16:31:34;25.70;;;13.95;;
12908;SDS011;6522;49.622;6.126;2022-11-14T16:34:22;22.50;;;13.68;;
12908;SDS011;6522;49.622;6.126;2022-11-14T16:37:09;24.73;;;15.35;;
12908;SDS011;6522;49.622;6.126;2022-11-14T16:39:54;23.10;;;14.80;;
12908;SDS011;6522;49.622;6.126;2022-11-14T16:42:41;22.62;;;14.75;;
12908;SDS011;6522;49.622;6.126;2022-11-14T16:45:28;21.30;;;14.30;;
12908;SDS011;6522;49.622;6.126;2022-11-14T16:48:15;20.37;;;14.80;;
12908;SDS011;6522;49.622;6.126;2022-11-14T16:51:02;21.62;;;14.23;;
12908;SDS011;6522;49.622;6.126;2022-11-14T16:53:53;22.20;;;13.95;;
12908;SDS011;6522;49.622;6.126;2022-11-14T16:56:35;22.73;;;14.52;;
12908;SDS011;6522;49.622;6.126;2022-11-14T16:59:22;24.37;;;13.68;;
12908;SDS011;6522;49.622;6.126;2022-11-14T17:02:13;24.05;;;14.27;;
12908;SDS011;6522;49.622;6.126;2022-11-14T17:04:55;28.75;;;14.45;;
12908;SDS011;6522;49.622;6.126;2022-11-14T17:07:42;21.65;;;14.52;;
12908;SDS011;6522;49.622;6.126;2022-11-14T17:10:29;19.58;;;13.57;;
12908;SDS011;6522;49.622;6.126;2022-11-14T17:13:16;24.25;;;14.93;;
12908;SDS011;6522;49.622;6.126;2022-11-14T17:16:02;22.35;;;14.77;;
12908;SDS011;6522;49.622;6.126;2022-11-14T17:18:50;20.23;;;14.80;;
12908;SDS011;6522;49.622;6.126;2022-11-14T17:21:36;19.73;;;14.25;;
12908;SDS011;6522;49.622;6.126;2022-11-14T17:24:22;20.12;;;13.55;;
12908;SDS011;6522;49.622;6.126;2022-11-14T17:27:09;22.17;;;13.60;;
12908;SDS011;6522;49.622;6.126;2022-11-14T17:29:56;20.05;;;13.40;;
12908;SDS011;6522;49.622;6.126;2022-11-14T17:32:43;23.12;;;15.27;;
12908;SDS011;6522;49.622;6.126;2022-11-14T17:35:29;17.83;;;13.25;;
12908;SDS011;6522;49.622;6.126;2022-11-14T17:38:16;24.25;;;12.88;;
12908;SDS011;6522;49.622;6.126;2022-11-14T17:41:03;19.00;;;13.32;;
12908;SDS011;6522;49.622;6.126;2022-11-14T17:43:53;21.27;;;13.98;;
12908;SDS011;6522;49.622;6.126;2022-11-14T17:46:39;20.90;;;12.90;;
12908;SDS011;6522;49.622;6.126;2022-11-14T17:49:26;19.15;;;13.90;;
12908;SDS011;6522;49.622;6.126;2022-11-14T17:52:13;22.67;;;14.27;;
12908;SDS011;6522;49.622;6.126;2022-11-14T17:55:00;19.23;;;14.40;;
12908;SDS011;6522;49.622;6.126;2022-11-14T17:57:47;27.55;;;16.62;;
12908;SDS011;6522;49.622;6.126;2022-11-14T18:00:34;22.83;;;15.15;;
12908;SDS011;6522;49.622;6.126;2022-11-14T18:03:20;20.45;;;14.48;;